createdAt,value
2018-07-08T00:00:27.213Z,951
2018-07-08T00:02:30.556Z,951
2018-07-08T00:04:33.871Z,951
2018-07-08T00:06:37.200Z,951
2018-07-08T00:08:40.529Z,951
2018-07-08T00:10:43.859Z,951.1
2018-07-08T00:12:50.056Z,951
2018-07-08T00:14:53.385Z,950.9
2018-07-08T00:16:56.712Z,950.9
2018-07-08T00:19:00.048Z,950.9
2018-07-08T00:21:03.370Z,951
2018-07-08T00:23:07.012Z,950.9
2018-07-08T00:25:16.670Z,950.9
2018-07-08T00:27:25.927Z,950.9
2018-07-08T00:29:29.254Z,951
2018-07-08T00:31:32.583Z,950.9
2018-07-08T00:33:35.912Z,950.9
2018-07-08T00:35:39.243Z,950.9
2018-07-08T00:37:42.572Z,950.9
2018-07-08T00:39:46.034Z,950.9
2018-07-08T00:41:49.506Z,950.8
2018-07-08T00:43:52.836Z,951
2018-07-08T00:45:56.214Z,950.9
2018-07-08T00:47:59.590Z,950.9
2018-07-08T00:50:02.872Z,950.9
2018-07-08T00:52:06.202Z,950.9
2018-07-08T00:54:09.535Z,950.9
2018-07-08T00:56:12.862Z,950.8
2018-07-08T00:58:16.190Z,950.9
2018-07-08T01:00:19.521Z,950.9
2018-07-08T01:02:25.792Z,950.9
2018-07-08T01:04:29.122Z,950.9
2018-07-08T01:06:32.493Z,950.9
2018-07-08T01:08:35.823Z,950.9
2018-07-08T01:10:39.169Z,951
2018-07-08T01:12:42.501Z,950.9
2018-07-08T01:14:45.826Z,950.9
2018-07-08T01:16:49.157Z,950.9
2018-07-08T01:18:52.486Z,950.9
2018-07-08T01:20:55.848Z,950.9
2018-07-08T01:22:59.171Z,950.9
2018-07-08T01:25:02.499Z,950.9
2018-07-08T01:27:05.830Z,950.9
2018-07-08T01:29:12.126Z,950.9
2018-07-08T01:31:15.456Z,950.9
2018-07-08T01:33:18.784Z,950.9
2018-07-08T01:35:22.116Z,950.9
2018-07-08T01:37:25.445Z,950.9
2018-07-08T01:39:28.773Z,951
2018-07-08T01:41:32.102Z,950.9
2018-07-08T01:43:35.432Z,950.9
2018-07-08T01:45:38.797Z,950.9
2018-07-08T01:47:42.124Z,950.8
2018-07-08T01:49:45.453Z,950.9
2018-07-08T01:51:51.768Z,950.8
2018-07-08T01:53:55.097Z,950.7
2018-07-08T01:55:58.425Z,950.7
2018-07-08T01:58:01.796Z,950.8
2018-07-08T02:00:05.348Z,950.7
2018-07-08T02:02:12.525Z,950.7
2018-07-08T02:04:15.873Z,950.7
2018-07-08T02:06:19.202Z,950.8
2018-07-08T02:08:22.552Z,950.8
2018-07-08T02:10:25.916Z,950.8
2018-07-08T02:12:29.297Z,950.7
2018-07-08T02:14:32.625Z,950.7
2018-07-08T02:16:35.954Z,950.7
2018-07-08T02:18:39.285Z,950.8
2018-07-08T02:20:42.645Z,950.7
2018-07-08T02:22:45.975Z,950.7
2018-07-08T02:24:49.326Z,950.7
2018-07-08T02:26:52.650Z,950.7
2018-07-08T02:28:55.981Z,950.6
2018-07-08T02:30:59.309Z,950.7
2018-07-08T02:33:02.639Z,950.7
2018-07-08T02:35:05.969Z,950.6
2018-07-08T02:37:09.299Z,950.6
2018-07-08T02:39:12.626Z,950.6
2018-07-08T02:41:15.962Z,950.6
2018-07-08T02:43:19.291Z,950.6
2018-07-08T02:45:22.617Z,950.6
2018-07-08T02:47:25.986Z,950.7
2018-07-08T02:49:29.316Z,950.7
2018-07-08T02:51:32.644Z,950.7
2018-07-08T02:53:35.982Z,950.6
2018-07-08T02:55:39.388Z,950.7
2018-07-08T02:57:42.713Z,950.6
2018-07-08T02:59:46.044Z,950.7
2018-07-08T03:01:49.371Z,950.7
2018-07-08T03:03:52.883Z,950.6
2018-07-08T03:05:56.244Z,950.6
2018-07-08T03:07:59.539Z,950.6
2018-07-08T03:10:02.868Z,950.7
2018-07-08T03:12:06.393Z,950.7
2018-07-08T03:14:09.723Z,950.7
2018-07-08T03:16:13.061Z,950.7
2018-07-08T03:18:16.385Z,950.7
2018-07-08T03:20:19.714Z,950.8
2018-07-08T03:22:23.044Z,950.7
2018-07-08T03:24:26.376Z,950.7
2018-07-08T03:26:29.701Z,950.7
2018-07-08T03:28:33.031Z,950.7
2018-07-08T03:30:36.392Z,950.7
2018-07-08T03:32:39.731Z,950.7
2018-07-08T03:34:43.057Z,950.6
2018-07-08T03:36:46.390Z,950.6
2018-07-08T03:38:49.721Z,950.6
2018-07-08T03:40:53.046Z,950.5
2018-07-08T03:42:56.375Z,950.6
2018-07-08T03:44:59.703Z,950.6
2018-07-08T03:47:03.033Z,950.5
2018-07-08T03:49:06.361Z,950.5
2018-07-08T03:51:09.692Z,950.4
2018-07-08T03:53:13.021Z,950.5
2018-07-08T03:55:16.349Z,950.5
2018-07-08T03:57:19.680Z,950.5
2018-07-08T03:59:23.009Z,950.5
2018-07-08T04:01:26.345Z,950.5
2018-07-08T04:03:29.674Z,950.5
2018-07-08T04:05:33.003Z,950.6
2018-07-08T04:07:36.334Z,950.5
2018-07-08T04:09:39.667Z,950.6
2018-07-08T04:11:42.994Z,950.6
2018-07-08T04:13:46.326Z,950.7
2018-07-08T04:15:49.654Z,950.7
2018-07-08T04:17:52.982Z,950.7
2018-07-08T04:19:56.312Z,950.6
2018-07-08T04:21:59.642Z,950.7
2018-07-08T04:24:02.972Z,950.7
2018-07-08T04:26:09.004Z,950.7
2018-07-08T04:28:12.277Z,950.7
2018-07-08T04:30:15.635Z,950.6
2018-07-08T04:32:18.946Z,950.6
2018-07-08T04:34:22.276Z,950.6
2018-07-08T04:36:25.611Z,950.6
2018-07-08T04:38:28.938Z,950.6
2018-07-08T04:40:32.265Z,950.6
2018-07-08T04:42:35.595Z,950.6
2018-07-08T04:44:38.926Z,950.7
2018-07-08T04:46:42.257Z,950.7
2018-07-08T04:48:45.588Z,950.7
2018-07-08T04:50:48.915Z,950.6
2018-07-08T04:52:52.246Z,950.7
2018-07-08T04:54:55.574Z,950.7
2018-07-08T04:56:58.903Z,950.6
2018-07-08T04:59:02.235Z,950.6
2018-07-08T05:01:05.566Z,950.6
2018-07-08T05:03:08.893Z,950.7
2018-07-08T05:05:12.254Z,950.7
2018-07-08T05:07:15.582Z,950.6
2018-07-08T05:09:18.919Z,950.7
2018-07-08T05:11:22.246Z,950.7
2018-07-08T05:13:25.611Z,950.7
2018-07-08T05:15:28.941Z,950.7
2018-07-08T05:17:32.268Z,950.8
2018-07-08T05:19:35.598Z,950.8
2018-07-08T05:21:38.962Z,950.8
2018-07-08T05:23:42.295Z,950.8
2018-07-08T05:25:45.621Z,950.8
2018-07-08T05:27:48.950Z,950.8
2018-07-08T05:29:52.503Z,950.9
2018-07-08T05:31:56.160Z,950.9
2018-07-08T05:33:59.498Z,950.9
2018-07-08T05:36:02.836Z,950.9
2018-07-08T05:38:06.161Z,951
2018-07-08T05:40:09.486Z,951
2018-07-08T05:42:12.816Z,950.9
2018-07-08T05:44:16.174Z,950.9
2018-07-08T05:46:19.504Z,951
2018-07-08T05:48:22.833Z,951
2018-07-08T05:50:26.576Z,951
2018-07-08T05:52:30.333Z,951
2018-07-08T05:54:33.662Z,950.9
2018-07-08T05:56:36.991Z,950.9
2018-07-08T05:58:40.320Z,951
2018-07-08T06:00:43.649Z,950.9
2018-07-08T06:02:47.016Z,951
2018-07-08T06:04:50.344Z,951
2018-07-08T06:06:53.674Z,951
2018-07-08T06:08:57.002Z,951
2018-07-08T06:11:00.332Z,951
2018-07-08T06:13:03.661Z,950.9
2018-07-08T06:15:06.990Z,951
2018-07-08T06:17:10.321Z,950.9
2018-07-08T06:19:13.653Z,950.9
2018-07-08T06:21:16.983Z,950.9
2018-07-08T06:23:20.310Z,950.9
2018-07-08T06:25:23.673Z,950.9
2018-07-08T06:27:27.010Z,950.9
2018-07-08T06:29:30.334Z,950.9
2018-07-08T06:31:33.665Z,950.9
2018-07-08T06:33:36.991Z,950.9
2018-07-08T06:35:40.321Z,950.9
2018-07-08T06:37:43.651Z,950.8
2018-07-08T06:39:46.979Z,950.8
2018-07-08T06:41:50.315Z,950.9
2018-07-08T06:43:53.637Z,950.9
2018-07-08T06:45:56.984Z,950.9
2018-07-08T06:48:00.313Z,950.9
2018-07-08T06:50:03.667Z,950.9
2018-07-08T06:52:08.136Z,950.9
2018-07-08T06:54:11.562Z,950.9
2018-07-08T06:56:14.889Z,950.8
2018-07-08T06:58:18.258Z,950.8
2018-07-08T07:00:21.589Z,950.9
2018-07-08T07:02:24.921Z,950.9
2018-07-08T07:04:28.251Z,950.9
2018-07-08T07:06:31.582Z,950.8
2018-07-08T07:08:34.908Z,950.9
2018-07-08T07:10:38.238Z,950.8
2018-07-08T07:12:41.571Z,950.8
2018-07-08T07:14:44.897Z,950.8
2018-07-08T07:16:48.226Z,950.8
2018-07-08T07:18:51.556Z,950.8
2018-07-08T07:20:54.886Z,950.8
2018-07-08T07:22:59.190Z,950.8
2018-07-08T07:25:02.667Z,950.8
2018-07-08T07:27:05.996Z,950.7
2018-07-08T07:29:09.339Z,950.7
2018-07-08T07:31:12.670Z,950.8
2018-07-08T07:33:15.998Z,950.7
2018-07-08T07:35:19.327Z,950.7
2018-07-08T07:37:22.919Z,950.7
2018-07-08T07:39:26.655Z,950.7
2018-07-08T07:41:29.998Z,950.7
2018-07-08T07:43:33.327Z,950.8
2018-07-08T07:45:36.658Z,950.8
2018-07-08T07:47:39.990Z,950.7
2018-07-08T07:49:43.322Z,950.7
2018-07-08T07:51:46.652Z,950.8
2018-07-08T07:53:49.982Z,950.8
2018-07-08T07:55:53.320Z,950.7
2018-07-08T07:57:56.649Z,950.7
2018-07-08T07:59:59.979Z,950.7
2018-07-08T08:02:03.309Z,950.7
2018-07-08T08:04:07.569Z,950.7
2018-07-08T08:06:10.897Z,950.7
2018-07-08T08:08:14.228Z,950.7
2018-07-08T08:10:17.601Z,950.7
2018-07-08T08:12:20.931Z,950.7
2018-07-08T08:14:24.266Z,950.7
2018-07-08T08:16:27.591Z,950.8
2018-07-08T08:18:30.922Z,950.7
2018-07-08T08:20:34.250Z,950.8
2018-07-08T08:22:37.583Z,950.7
2018-07-08T08:24:41.949Z,950.7
2018-07-08T08:26:45.498Z,950.7
2018-07-08T08:28:49.128Z,950.7
2018-07-08T08:30:52.456Z,950.7
2018-07-08T08:32:55.785Z,950.7
2018-07-08T08:34:59.116Z,950.7
2018-07-08T08:37:02.444Z,950.7
2018-07-08T08:39:05.799Z,950.6
2018-07-08T08:41:09.106Z,950.6
2018-07-08T08:43:12.434Z,950.7
2018-07-08T08:45:15.765Z,950.7
2018-07-08T08:47:19.096Z,950.7
2018-07-08T08:49:22.433Z,950.7
2018-07-08T08:51:25.757Z,950.6
2018-07-08T08:53:29.089Z,950.6
2018-07-08T08:55:32.417Z,950.6
2018-07-08T08:57:35.756Z,950.5
2018-07-08T08:59:39.082Z,950.5
2018-07-08T09:01:42.411Z,950.4
2018-07-08T09:03:45.850Z,950.4
2018-07-08T09:05:49.234Z,950.4
2018-07-08T09:07:52.563Z,950.4
2018-07-08T09:09:55.892Z,950.4
2018-07-08T09:11:59.220Z,950.4
2018-07-08T09:14:02.559Z,950.4
2018-07-08T09:16:05.879Z,950.5
2018-07-08T09:18:09.208Z,950.5
2018-07-08T09:20:12.540Z,950.5
2018-07-08T09:22:15.899Z,950.6
2018-07-08T09:24:19.229Z,950.5
2018-07-08T09:26:22.558Z,950.5
2018-07-08T09:28:25.894Z,950.6
2018-07-08T09:30:29.219Z,950.7
2018-07-08T09:32:32.545Z,950.7
2018-07-08T09:34:35.874Z,950.7
2018-07-08T09:36:39.205Z,950.8
2018-07-08T09:38:42.795Z,950.7
2018-07-08T09:40:46.639Z,950.8
2018-07-08T09:42:49.969Z,950.8
2018-07-08T09:44:53.382Z,950.8
2018-07-08T09:46:56.710Z,950.8
2018-07-08T09:49:00.042Z,950.8
2018-07-08T09:51:03.370Z,950.8
2018-07-08T09:53:06.698Z,950.8
2018-07-08T09:55:10.030Z,950.8
2018-07-08T09:57:13.356Z,950.8
2018-07-08T09:59:16.686Z,950.8
2018-07-08T10:01:20.015Z,950.9
2018-07-08T10:03:23.346Z,950.9
2018-07-08T10:05:26.853Z,950.9
2018-07-08T10:07:30.182Z,950.8
2018-07-08T10:09:33.512Z,950.8
2018-07-08T10:11:36.883Z,950.9
2018-07-08T10:13:40.443Z,951
2018-07-08T10:15:44.060Z,950.9
2018-07-08T10:17:47.938Z,950.9
2018-07-08T10:19:52.614Z,951
2018-07-08T10:21:57.340Z,951
2018-07-08T10:24:00.672Z,951
2018-07-08T10:26:06.994Z,951
2018-07-08T10:28:10.322Z,951
2018-07-08T10:30:13.711Z,951
2018-07-08T10:32:17.045Z,951
2018-07-08T10:34:20.385Z,951
2018-07-08T10:36:23.721Z,951
2018-07-08T10:38:27.088Z,951.1
2018-07-08T10:40:30.518Z,951.1
2018-07-08T10:42:33.819Z,951.1
2018-07-08T10:44:37.145Z,951.1
2018-07-08T10:46:40.475Z,951
2018-07-08T10:48:43.808Z,951
2018-07-08T10:50:47.138Z,950.9
2018-07-08T10:52:50.468Z,950.9
2018-07-08T10:54:53.796Z,950.9
2018-07-08T10:56:57.144Z,950.9
2018-07-08T10:59:00.525Z,950.9
2018-07-08T11:01:03.847Z,950.9
2018-07-08T11:03:07.175Z,950.9
2018-07-08T11:05:10.548Z,950.9
2018-07-08T11:07:13.880Z,950.9
2018-07-08T11:09:17.209Z,950.8
2018-07-08T11:11:20.540Z,950.8
2018-07-08T11:13:23.868Z,950.8
2018-07-08T11:15:27.199Z,950.8
2018-07-08T11:17:30.530Z,950.8
2018-07-08T11:19:33.924Z,950.8
2018-07-08T11:21:37.268Z,950.8
2018-07-08T11:23:40.629Z,950.8
2018-07-08T11:25:43.957Z,950.8
2018-07-08T11:27:47.288Z,950.7
2018-07-08T11:29:50.622Z,950.7
2018-07-08T11:31:53.949Z,950.7
2018-07-08T11:33:57.278Z,950.7
2018-07-08T11:36:00.638Z,950.6
2018-07-08T11:38:04.240Z,950.7
2018-07-08T11:40:07.607Z,950.7
2018-07-08T11:42:10.938Z,950.7
2018-07-08T11:44:14.268Z,950.7
2018-07-08T11:46:17.598Z,950.7
2018-07-08T11:48:20.940Z,950.6
2018-07-08T11:50:24.275Z,950.7
2018-07-08T11:52:27.600Z,950.7
2018-07-08T11:54:30.929Z,950.7
2018-07-08T11:56:34.259Z,950.7
2018-07-08T11:58:37.588Z,950.7
2018-07-08T12:00:40.916Z,950.7
2018-07-08T12:02:44.247Z,950.7
2018-07-08T12:04:48.691Z,950.7
2018-07-08T12:06:52.019Z,950.7
2018-07-08T12:08:55.648Z,950.7
2018-07-08T12:10:59.131Z,950.6
2018-07-08T12:13:02.467Z,950.7
2018-07-08T12:15:05.799Z,950.6
2018-07-08T12:17:09.126Z,950.6
2018-07-08T12:19:12.462Z,950.6
2018-07-08T12:21:15.885Z,950.5
2018-07-08T12:23:19.434Z,950.5
2018-07-08T12:25:22.773Z,950.5
2018-07-08T12:27:26.092Z,950.5
2018-07-08T12:29:29.427Z,950.5
2018-07-08T12:31:32.753Z,950.5
2018-07-08T12:33:36.084Z,950.5
2018-07-08T12:35:39.414Z,950.5
2018-07-08T12:37:42.742Z,950.5
2018-07-08T12:39:46.077Z,950.5
2018-07-08T12:41:49.404Z,950.5
2018-07-08T12:43:52.733Z,950.4
2018-07-08T12:45:56.066Z,950.5
2018-07-08T12:47:59.413Z,950.5
2018-07-08T12:50:02.760Z,950.5
2018-07-08T12:52:06.098Z,950.5
2018-07-08T12:54:09.464Z,950.5
2018-07-08T12:56:12.796Z,950.5
2018-07-08T12:58:16.152Z,950.5
2018-07-08T13:00:19.481Z,950.5
2018-07-08T13:02:22.828Z,950.4
2018-07-08T13:04:26.160Z,950.5
2018-07-08T13:06:29.650Z,950.5
2018-07-08T13:08:33.042Z,950.5
2018-07-08T13:10:36.373Z,950.6
2018-07-08T13:12:39.701Z,950.5
2018-07-08T13:14:43.038Z,950.5
2018-07-08T13:16:46.366Z,950.5
2018-07-08T13:18:49.772Z,950.5
2018-07-08T13:20:53.068Z,950.5
2018-07-08T13:22:57.308Z,950.4
2018-07-08T13:25:03.641Z,950.4
2018-07-08T13:27:07.003Z,950.4
2018-07-08T13:29:10.376Z,950.4
2018-07-08T13:31:13.707Z,950.5
2018-07-08T13:33:17.038Z,950.5
2018-07-08T13:35:20.365Z,950.5
2018-07-08T13:37:23.699Z,950.5
2018-07-08T13:39:27.026Z,950.6
2018-07-08T13:41:30.357Z,950.5
2018-07-08T13:43:33.689Z,950.5
2018-07-08T13:45:37.950Z,950.5
2018-07-08T13:47:41.303Z,950.5
2018-07-08T13:49:44.626Z,950.5
2018-07-08T13:51:47.955Z,950.5
2018-07-08T13:53:51.332Z,950.5
2018-07-08T13:55:54.637Z,950.6
2018-07-08T13:57:58.031Z,950.5
2018-07-08T14:00:01.365Z,950.5
2018-07-08T14:02:04.692Z,950.5
2018-07-08T14:04:08.023Z,950.4
2018-07-08T14:06:11.354Z,950.4
2018-07-08T14:08:14.684Z,950.4
2018-07-08T14:10:19.006Z,950.4
2018-07-08T14:12:22.337Z,950.4
2018-07-08T14:14:25.670Z,950.5
2018-07-08T14:16:29.027Z,950.4
2018-07-08T14:18:32.395Z,950.5
2018-07-08T14:20:39.184Z,950.5
2018-07-08T14:22:45.785Z,950.5
2018-07-08T14:24:49.149Z,950.5
2018-07-08T14:26:52.477Z,950.5
2018-07-08T14:28:56.024Z,950.5
2018-07-08T14:30:59.426Z,950.5
2018-07-08T14:33:02.896Z,950.4
2018-07-08T14:35:06.467Z,950.4
2018-07-08T14:37:09.860Z,950.4
2018-07-08T14:39:13.190Z,950.4
2018-07-08T14:41:17.225Z,950.4
2018-07-08T14:43:20.553Z,950.3
2018-07-08T14:45:27.003Z,950.3
2018-07-08T14:47:33.306Z,950.3
2018-07-08T14:49:39.234Z,950.3
2018-07-08T14:51:42.594Z,950.2
2018-07-08T14:53:46.001Z,950.2
2018-07-08T14:55:52.416Z,950.2
2018-07-08T14:57:55.742Z,950.2
2018-07-08T14:59:59.073Z,950.2
2018-07-08T15:02:02.403Z,950.2
2018-07-08T15:04:06.870Z,950.2
2018-07-08T15:06:12.953Z,950.2
2018-07-08T15:08:16.232Z,950.1
2018-07-08T15:10:20.557Z,950.3
2018-07-08T15:12:23.839Z,950.3
2018-07-08T15:14:27.169Z,950.3
2018-07-08T15:16:33.502Z,950.3
2018-07-08T15:18:37.010Z,950.4
2018-07-08T15:20:43.123Z,950.3
2018-07-08T15:22:46.461Z,950.2
2018-07-08T15:24:49.773Z,950.3
2018-07-08T15:26:54.067Z,950.3
2018-07-08T15:28:57.583Z,950.3
2018-07-08T15:31:00.918Z,950.3
2018-07-08T15:33:04.246Z,950.4
2018-07-08T15:35:07.585Z,950.5
2018-07-08T15:37:13.831Z,950.4
2018-07-08T15:39:17.179Z,950.5
2018-07-08T15:41:20.737Z,950.5
2018-07-08T15:43:24.068Z,950.4
2018-07-08T15:45:27.395Z,950.4
2018-07-08T15:47:31.000Z,950.5
2018-07-08T15:49:34.909Z,950.5
2018-07-08T15:51:38.708Z,950.5
2018-07-08T15:53:42.176Z,950.4
2018-07-08T15:55:46.328Z,950.3
2018-07-08T15:57:49.658Z,950.4
2018-07-08T15:59:52.985Z,950.3
2018-07-08T16:01:56.352Z,950.3
2018-07-08T16:03:59.679Z,950.3
2018-07-08T16:06:03.170Z,950.3
2018-07-08T16:08:06.741Z,950.3
2018-07-08T16:10:10.077Z,950.3
2018-07-08T16:12:13.399Z,950.4
2018-07-08T16:14:16.738Z,950.3
2018-07-08T16:16:20.066Z,950.4
2018-07-08T16:18:23.544Z,950.5
2018-07-08T16:20:27.490Z,950.5
2018-07-08T16:22:30.818Z,950.6
2018-07-08T16:24:34.176Z,950.6
2018-07-08T16:26:37.507Z,950.6
2018-07-08T16:28:40.870Z,950.7
2018-07-08T16:30:44.204Z,950.7
2018-07-08T16:32:47.527Z,950.7
2018-07-08T16:34:50.864Z,950.7
2018-07-08T16:36:54.208Z,950.8
2018-07-08T16:38:57.542Z,950.8
2018-07-08T16:41:00.892Z,950.9
2018-07-08T16:43:04.212Z,950.9
2018-07-08T16:45:07.549Z,950.9
2018-07-08T16:47:10.881Z,950.9
2018-07-08T16:49:22.939Z,950.8
2018-07-08T16:51:26.295Z,950.8
2018-07-08T16:53:32.938Z,950.9
2018-07-08T16:55:36.262Z,950.8
2018-07-08T16:57:39.615Z,950.8
2018-07-08T16:59:43.941Z,950.8
2018-07-08T17:01:47.270Z,950.8
2018-07-08T17:03:50.598Z,950.8
2018-07-08T17:05:53.928Z,950.9
2018-07-08T17:07:57.257Z,950.9
2018-07-08T17:10:01.702Z,950.9
2018-07-08T17:12:05.068Z,950.9
2018-07-08T17:14:09.333Z,950.9
2018-07-08T17:16:15.566Z,950.9
2018-07-08T17:18:19.744Z,950.9
2018-07-08T17:20:23.103Z,951
2018-07-08T17:22:26.433Z,951
2018-07-08T17:24:33.443Z,951
2018-07-08T17:26:38.205Z,951
2018-07-08T17:28:44.569Z,951.1
2018-07-08T17:30:47.895Z,951
2018-07-08T17:32:51.343Z,951.1
2018-07-08T17:34:54.635Z,951
2018-07-08T17:36:57.966Z,951
2018-07-08T17:39:01.298Z,951.1
2018-07-08T17:41:05.786Z,951
2018-07-08T17:43:09.118Z,951
2018-07-08T17:45:12.444Z,951
2018-07-08T17:47:15.773Z,951
2018-07-08T17:49:19.138Z,951
2018-07-08T17:51:22.654Z,951
2018-07-08T17:53:26.027Z,951
2018-07-08T17:55:29.609Z,950.9
2018-07-08T17:57:32.954Z,950.9
2018-07-08T17:59:36.512Z,950.9
2018-07-08T18:01:39.840Z,950.8
2018-07-08T18:03:43.166Z,950.9
2018-07-08T18:05:46.496Z,950.9
2018-07-08T18:07:49.838Z,950.9
2018-07-08T18:09:54.100Z,950.9
2018-07-08T18:11:57.464Z,950.9
2018-07-08T18:14:00.825Z,951
2018-07-08T18:16:04.290Z,951
2018-07-08T18:18:07.636Z,951
2018-07-08T18:20:10.948Z,951.1
2018-07-08T18:22:14.341Z,951.1
2018-07-08T18:24:17.623Z,951.1
2018-07-08T18:26:20.947Z,951.1
2018-07-08T18:28:24.275Z,951.1
2018-07-08T18:30:28.589Z,951.2
2018-07-08T18:32:31.862Z,951.2
2018-07-08T18:34:35.205Z,951.2
2018-07-08T18:36:38.534Z,951.3
2018-07-08T18:38:41.868Z,951.3
2018-07-08T18:40:51.675Z,951.3
2018-07-08T18:42:55.181Z,951.4
2018-07-08T18:44:58.515Z,951.3
2018-07-08T18:47:01.843Z,951.4
2018-07-08T18:49:05.210Z,951.4
2018-07-08T18:51:08.540Z,951.4
2018-07-08T18:53:11.869Z,951.4
2018-07-08T18:55:15.446Z,951.5
2018-07-08T18:57:18.788Z,951.5
2018-07-08T18:59:22.484Z,951.5
2018-07-08T19:01:25.970Z,951.7
2018-07-08T19:03:29.297Z,951.4
2018-07-08T19:05:32.646Z,951.5
2018-07-08T19:07:35.978Z,951.5
2018-07-08T19:09:39.316Z,951.6
2018-07-08T19:11:42.654Z,951.6
2018-07-08T19:13:46.074Z,951.6
2018-07-08T19:15:49.350Z,951.6
2018-07-08T19:17:52.821Z,951.6
2018-07-08T19:19:56.114Z,951.7
2018-07-08T19:21:59.456Z,951.6
2018-07-08T19:24:02.832Z,951.6
2018-07-08T19:26:06.179Z,951.6
2018-07-08T19:28:09.512Z,951.6
2018-07-08T19:30:12.838Z,951.6
2018-07-08T19:32:16.174Z,951.7
2018-07-08T19:34:19.504Z,951.7
2018-07-08T19:36:22.832Z,951.6
2018-07-08T19:38:26.169Z,951.6
2018-07-08T19:40:29.855Z,951.6
2018-07-08T19:42:35.934Z,951.6
2018-07-08T19:44:39.211Z,951.7
2018-07-08T19:46:42.725Z,951.6
2018-07-08T19:48:46.055Z,951.7
2018-07-08T19:50:49.386Z,951.7
2018-07-08T19:52:52.763Z,951.7
2018-07-08T19:54:56.092Z,951.7
2018-07-08T19:56:59.422Z,951.6
2018-07-08T19:59:02.884Z,951.6
2018-07-08T20:01:06.823Z,951.7
2018-07-08T20:03:10.245Z,951.7
2018-07-08T20:05:13.571Z,951.7
2018-07-08T20:07:17.017Z,951.7
2018-07-08T20:09:20.428Z,951.7
2018-07-08T20:11:23.762Z,951.7
2018-07-08T20:13:27.091Z,951.7
2018-07-08T20:15:30.509Z,951.7
2018-07-08T20:17:33.907Z,951.6
2018-07-08T20:19:37.301Z,951.6
2018-07-08T20:21:40.875Z,951.7
2018-07-08T20:23:44.668Z,951.7
2018-07-08T20:25:47.993Z,951.7
2018-07-08T20:27:51.323Z,951.7
2018-07-08T20:29:54.655Z,951.7
2018-07-08T20:31:57.983Z,951.7
2018-07-08T20:34:01.349Z,951.6
2018-07-08T20:36:04.877Z,951.7
2018-07-08T20:38:08.211Z,951.6
2018-07-08T20:40:11.550Z,951.6
2018-07-08T20:42:14.873Z,951.6
2018-07-08T20:44:18.205Z,951.5
2018-07-08T20:46:22.464Z,951.5
2018-07-08T20:48:25.800Z,951.6
2018-07-08T20:50:29.135Z,951.6
2018-07-08T20:52:32.463Z,951.6
2018-07-08T20:54:35.795Z,951.6
2018-07-08T20:56:39.148Z,951.5
2018-07-08T20:58:42.479Z,951.6
2018-07-08T21:00:45.967Z,951.5
2018-07-08T21:02:49.301Z,951.5
2018-07-08T21:04:52.629Z,951.5
2018-07-08T21:06:55.960Z,951.5
2018-07-08T21:08:59.294Z,951.5
2018-07-08T21:11:02.645Z,951.4
2018-07-08T21:13:05.977Z,951.5
2018-07-08T21:15:09.310Z,951.5
2018-07-08T21:17:12.715Z,951.5
2018-07-08T21:19:16.126Z,951.5
2018-07-08T21:21:19.570Z,951.5
2018-07-08T21:23:22.866Z,951.5
2018-07-08T21:25:26.196Z,951.5
2018-07-08T21:27:29.527Z,951.4
2018-07-08T21:29:32.859Z,951.6
2018-07-08T21:31:36.203Z,951.5
2018-07-08T21:33:39.530Z,951.6
2018-07-08T21:35:42.869Z,951.6
2018-07-08T21:37:46.191Z,951.7
2018-07-08T21:39:49.522Z,951.7
2018-07-08T21:41:52.854Z,951.5
2018-07-08T21:43:56.215Z,951.6
2018-07-08T21:45:59.545Z,951.6
2018-07-08T21:48:02.880Z,951.7
2018-07-08T21:50:06.225Z,951.7
2018-07-08T21:52:09.556Z,951.7
2018-07-08T21:54:12.889Z,951.7
2018-07-08T21:56:16.220Z,951.8
2018-07-08T21:58:20.482Z,951.8
2018-07-08T22:00:23.811Z,951.7
2018-07-08T22:02:27.143Z,951.7
2018-07-08T22:04:30.475Z,951.7
2018-07-08T22:06:33.805Z,951.7
2018-07-08T22:08:37.141Z,951.7
2018-07-08T22:10:40.511Z,951.7
2018-07-08T22:12:43.844Z,951.6
2018-07-08T22:14:47.176Z,951.6
2018-07-08T22:16:50.544Z,951.6
2018-07-08T22:18:53.878Z,951.7
2018-07-08T22:20:57.203Z,951.7
2018-07-08T22:23:00.532Z,951.7
2018-07-08T22:25:03.910Z,951.7
2018-07-08T22:27:07.238Z,951.7
2018-07-08T22:29:10.566Z,951.7
2018-07-08T22:31:13.895Z,951.6
2018-07-08T22:33:17.261Z,951.6
2018-07-08T22:35:20.591Z,951.6
2018-07-08T22:37:23.924Z,951.6
2018-07-08T22:39:27.387Z,951.6
2018-07-08T22:41:30.790Z,951.6
2018-07-08T22:43:36.841Z,951.6
2018-07-08T22:45:40.172Z,951.6
2018-07-08T22:47:43.503Z,951.6
2018-07-08T22:49:46.893Z,951.7
2018-07-08T22:51:50.224Z,951.7
2018-07-08T22:53:53.557Z,951.7
2018-07-08T22:55:56.889Z,951.6
2018-07-08T22:58:00.219Z,951.6
2018-07-08T23:00:03.589Z,951.7
2018-07-08T23:02:07.016Z,951.6
2018-07-08T23:04:10.350Z,951.5
2018-07-08T23:06:13.717Z,951.6
2018-07-08T23:08:17.041Z,951.6
2018-07-08T23:10:20.372Z,951.6
2018-07-08T23:12:23.945Z,951.5
2018-07-08T23:14:27.773Z,951.6
2018-07-08T23:16:31.102Z,951.6
2018-07-08T23:18:34.472Z,951.5
2018-07-08T23:20:37.801Z,951.5
2018-07-08T23:22:41.135Z,951.5
2018-07-08T23:24:44.465Z,951.4
2018-07-08T23:26:47.795Z,951.4
2018-07-08T23:28:51.132Z,951.4
2018-07-08T23:30:54.462Z,951.4
2018-07-08T23:32:57.788Z,951.4
2018-07-08T23:35:01.154Z,951.4
2018-07-08T23:37:04.523Z,951.5
2018-07-08T23:39:07.854Z,951.4
2018-07-08T23:41:11.184Z,951.4
2018-07-08T23:43:14.516Z,951.4
2018-07-08T23:45:17.850Z,951.5
2018-07-08T23:47:21.177Z,951.5
2018-07-08T23:49:24.535Z,951.4
2018-07-08T23:51:27.840Z,951.5
2018-07-08T23:53:31.172Z,951.5
2018-07-08T23:55:34.501Z,951.5
2018-07-08T23:57:37.835Z,951.4
2018-07-08T23:59:41.195Z,951.4
